Meteo Giornale » Osservazioni meteo Stati Uniti (USA) » Austin City
ore: 00:51 - Osservazioni Meteo Austin City
Lat. 30° 19' N Lon. 97° 46' W Alt. 198 metri s.l.m.
29 °C
Sereno
Temp. 24 Ore
26 °C
37 °C
Sud
11.1 Km/h
Dew point 22 °C
Umidità 66 %
Visibilità 10 Km
Il sole sorge alle ore 07:07
Il sole tramonta alle ore 19:53
| Data e Ora | Cielo e Fenomeni | T °C | DP °C | Um. % | Pres. hPa | Vis. km | Vento km/h | |
|---|---|---|---|---|---|---|---|---|
| Oggi h: 00:51 | Sereno | 29 | 22 | 66 | 1016 | 10 | S 11.1 | |
| Ieri h: 23:51 | Sereno | 30 | 22 | 62 | 1015 | 10 | S 9.3 | |
| Ieri h: 22:51 | Sereno | 31 | 21 | 55 | 1015 | 10 | N 9.3 | |
| Ieri h: 21:51 | Sereno | 32 | 18 | 43 | 1015 | 10 | SE 18.5 | |
| Ieri h: 20:51 | Sereno | 34 | 17 | 36 | 1014 | 10 | E/SE 7.4 | |
| Ieri h: 19:51 | Poco Nuvoloso | 35 | 16 | 32 | 1013 | 10 | E 9.3 | |
| Ieri h: 18:51 | Sereno | 36 | 16 | 30 | 1013 | 10 | S/SE 13 | |
| Ieri h: 17:51 | Sereno | 37 | 17 | 30 | 1013 | 10 | N 7.4 | |
| Ieri h: 16:51 | Sereno | 37 | 18 | 32 | 1013 | 10 | N 7.4 | |
| Ieri h: 15:51 | Poco Nuvoloso | 37 | 18 | 32 | 1014 | 10 | N 9.3 | |
| Ieri h: 14:51 | Poco Nuvoloso | 37 | 19 | 35 | 1015 | 10 | N 7.4 | |
| Ieri h: 13:51 | Poco Nuvoloso | 35 | 19 | 39 | 1016 | 10 | N 5.5 | |
| Ieri h: 12:51 | Poco Nuvoloso | 35 | 21 | 44 | 1017 | 10 | N 7.4 | |
| Ieri h: 11:51 | Sereno | 34 | 21 | 46 | 1017 | 10 | N 9.3 | |
| Ieri h: 10:51 | Nuvoloso | 30 | 23 | 66 | 1017 | 10 | N 5.5 | |
| Ieri h: 10:48 | Nuvoloso | 29 | 23 | 70 | 1017 | 0 | S/SO 7.4 | |
| Ieri h: 10:29 | Molto Nuvoloso | 32 | 23 | 59 | 1017 | 10 | SO 11.1 | |
| Ieri h: 09:51 | Sereno | 28 | 23 | 74 | 1017 | 10 | N 7.4 | |
| Ieri h: 08:51 | Poco Nuvoloso | 27 | 24 | 83 | 1017 | 10 | N 5.5 | |
| Ieri h: 07:51 | Sereno | 26 | 24 | 88 | 1016 | 10 | N 0 | |
| Ieri h: 06:51 | Poco Nuvoloso | 26 | 24 | 88 | 1016 | 10 | N 0 | |
| Ieri h: 06:42 | Molto Nuvoloso | 26 | 24 | 88 | 1016 | 10 | N 7.4 | |
| Ieri h: 06:10 | Nuvoloso | 26 | 24 | 88 | 1016 | 10 | N 0 | |
| Ieri h: 05:51 | Coperto | 26 | 24 | 88 | 1016 | 10 | S/SO 7.4 | |
| Ieri h: 04:51 | Molto Nuvoloso | 26 | 24 | 88 | 1016 | 10 | N 5.5 | |
| Ieri h: 04:41 | Molto Nuvoloso | 26 | 24 | 88 | 1016 | 10 | S/SO 7.4 | |
| Ieri h: 04:07 | Molto Nuvoloso | 27 | 24 | 83 | 1016 | 10 | N 5.5 | |
| Ieri h: 03:51 | Coperto | 27 | 24 | 83 | 1016 | 10 | N 9.3 | |
| Ieri h: 03:06 | Molto Nuvoloso | 27 | 24 | 83 | 1016 | 10 | N 7.4 | |
| Ieri h: 02:51 | Nuvoloso | 27 | 24 | 83 | 1016 | 10 | N 11.1 | |
| Ieri h: 01:51 | Sereno | 27 | 23 | 78 | 1016 | 10 | S 7.4 | |



